createdAt,value
2022-08-28T00:01:43.586Z,80.52
2022-08-28T00:04:13.392Z,81.10
2022-08-28T00:06:42.493Z,82.47
2022-08-28T00:09:12.654Z,81.73
2022-08-28T00:11:42.784Z,81.72
2022-08-28T00:14:12.552Z,81.87
2022-08-28T00:16:41.991Z,81.93
2022-08-28T00:19:13.386Z,79.24
2022-08-28T00:21:42.764Z,78.72
2022-08-28T00:24:13.376Z,81.16
2022-08-28T00:27:01.778Z,82.17
2022-08-28T00:29:32.575Z,83.23
2022-08-28T00:32:03.030Z,81.79
2022-08-28T00:34:33.843Z,82.79
2022-08-28T00:37:03.877Z,83.12
2022-08-28T00:39:32.974Z,82.88
2022-08-28T00:42:02.182Z,83.17
2022-08-28T00:44:31.695Z,84.37
2022-08-28T00:47:01.276Z,84.74
2022-08-28T00:49:38.660Z,84.08
2022-08-28T00:52:12.671Z,83.73
2022-08-28T00:54:58.675Z,84.28
2022-08-28T00:57:38.422Z,84.78
2022-08-28T01:00:10.653Z,84.56
2022-08-28T01:02:41.250Z,84.70
2022-08-28T01:05:11.693Z,84.35
2022-08-28T01:07:42.489Z,84.37
2022-08-28T01:10:16.534Z,84.30
2022-08-28T01:12:47.948Z,85.27
2022-08-28T01:15:23.602Z,84.87
2022-08-28T01:17:56.778Z,84.64
2022-08-28T01:20:30.873Z,85.29
2022-08-28T01:23:21.934Z,85.50
2022-08-28T01:25:52.867Z,84.68
2022-08-28T01:28:23.813Z,85.10
2022-08-28T01:30:53.828Z,84.82
2022-08-28T01:33:28.030Z,82.92
2022-08-28T01:35:58.097Z,82.07
2022-08-28T01:38:28.364Z,85.08
2022-08-28T01:40:59.744Z,85.09
2022-08-28T01:43:29.331Z,83.55
2022-08-28T01:46:04.953Z,80.54
2022-08-28T01:48:37.455Z,80.80
2022-08-28T01:51:08.702Z,80.77
2022-08-28T01:53:39.220Z,83.55
2022-08-28T01:56:12.868Z,86.32
2022-08-28T01:58:43.201Z,86.15
2022-08-28T02:01:15.817Z,86.29
2022-08-28T02:03:48.189Z,83.39
2022-08-28T02:06:18.703Z,84.77
2022-08-28T02:08:51.108Z,87.49
2022-08-28T02:11:22.159Z,86.82
2022-08-28T02:13:54.508Z,85.27
2022-08-28T02:16:27.102Z,86.57
2022-08-28T02:18:58.559Z,86.28
2022-08-28T02:21:28.241Z,86.38
2022-08-28T02:23:59.907Z,83.62
2022-08-28T02:26:32.475Z,81.61
2022-08-28T02:29:02.941Z,82.84
2022-08-28T02:31:34.145Z,83.30
2022-08-28T02:34:06.537Z,83.11
2022-08-28T02:36:36.434Z,83.36
2022-08-28T02:39:05.622Z,82.50
2022-08-28T02:41:35.638Z,85.58
2022-08-28T02:44:05.997Z,85.34
2022-08-28T02:46:35.698Z,85.35
2022-08-28T02:49:05.556Z,87.65
2022-08-28T02:51:36.381Z,87.01
2022-08-28T02:54:06.457Z,87.03
2022-08-28T02:56:36.081Z,88.03
2022-08-28T02:59:05.875Z,87.81
2022-08-28T03:01:36.141Z,88.34
2022-08-28T03:04:06.497Z,87.71
2022-08-28T03:06:36.496Z,88.41
2022-08-28T03:09:06.458Z,88.25
2022-08-28T03:11:37.173Z,86.57
2022-08-28T03:14:07.406Z,87.96
2022-08-28T03:16:36.989Z,88.20
2022-08-28T03:19:07.326Z,89.31
2022-08-28T03:21:38.509Z,88.76
2022-08-28T03:24:08.397Z,88.60
2022-08-28T03:26:38.712Z,88.89
2022-08-28T03:29:08.021Z,89.27
2022-08-28T03:31:39.464Z,88.99
2022-08-28T03:34:10.050Z,88.84
2022-08-28T03:36:39.078Z,89.01
2022-08-28T03:39:08.700Z,88.36
2022-08-28T03:41:37.690Z,88.85
2022-08-28T03:44:07.187Z,89.64
2022-08-28T03:46:36.705Z,88.88
2022-08-28T03:49:06.797Z,88.02
2022-08-28T03:51:36.737Z,89.50
2022-08-28T03:54:07.043Z,89.71
2022-08-28T03:56:36.505Z,87.83
2022-08-28T03:59:05.910Z,88.78
2022-08-28T04:01:35.635Z,88.00
2022-08-28T04:04:05.203Z,88.81
2022-08-28T04:06:34.685Z,89.84
2022-08-28T04:09:06.268Z,90.02
2022-08-28T04:11:39.137Z,89.35
2022-08-28T04:14:10.333Z,88.09
2022-08-28T04:16:40.207Z,86.00
2022-08-28T04:19:09.740Z,85.78
2022-08-28T04:21:40.519Z,84.97
2022-08-28T04:24:10.219Z,84.70
2022-08-28T04:26:40.038Z,84.85
2022-08-28T04:29:09.850Z,84.80
2022-08-28T04:31:39.878Z,84.62
2022-08-28T04:34:09.674Z,83.92
2022-08-28T04:36:38.841Z,82.93
2022-08-28T04:39:09.570Z,82.34
2022-08-28T04:41:39.961Z,81.98
2022-08-28T04:44:09.950Z,80.57
2022-08-28T04:46:39.474Z,80.33
2022-08-28T04:49:08.961Z,80.51
2022-08-28T04:51:41.888Z,79.15
2022-08-28T04:54:12.176Z,77.95
2022-08-28T04:56:42.129Z,77.79
2022-08-28T04:59:12.415Z,78.43
2022-08-28T05:01:42.952Z,75.65
2022-08-28T05:04:12.851Z,72.55
2022-08-28T05:06:46.730Z,71.93
2022-08-28T05:09:19.235Z,71.46
2022-08-28T05:11:49.777Z,71.92
2022-08-28T05:14:20.794Z,72.27
2022-08-28T05:16:57.993Z,73.57
2022-08-28T05:19:28.916Z,72.84
2022-08-28T05:21:57.807Z,72.03
2022-08-28T05:24:26.805Z,70.08
2022-08-28T05:26:55.754Z,66.77
2022-08-28T05:29:26.538Z,64.92
2022-08-28T05:31:56.598Z,64.73
2022-08-28T05:34:25.747Z,65.17
2022-08-28T05:36:54.852Z,64.88
2022-08-28T05:39:24.423Z,64.81
2022-08-28T05:41:53.351Z,64.13
2022-08-28T05:44:22.557Z,62.68
2022-08-28T05:46:51.946Z,63.25
2022-08-28T05:49:20.713Z,63.02
2022-08-28T05:51:50.841Z,61.70
2022-08-28T05:54:19.627Z,58.06
2022-08-28T05:56:48.419Z,58.60
2022-08-28T05:59:17.776Z,57.51
2022-08-28T06:01:47.561Z,57.08
2022-08-28T06:04:25.765Z,56.96
2022-08-28T06:06:55.138Z,57.32
2022-08-28T06:09:30.077Z,57.18
2022-08-28T06:12:02.510Z,55.56
2022-08-28T06:14:32.871Z,56.27
2022-08-28T06:17:03.704Z,54.92
2022-08-28T06:19:39.297Z,54.37
2022-08-28T06:22:12.591Z,52.81
2022-08-28T06:24:41.848Z,52.03
2022-08-28T06:27:10.527Z,50.86
2022-08-28T06:29:40.241Z,50.42
2022-08-28T06:32:09.511Z,49.95
2022-08-28T06:34:38.329Z,49.74
2022-08-28T06:37:08.457Z,49.29
2022-08-28T06:39:37.644Z,49.21
2022-08-28T06:42:07.134Z,48.60
2022-08-28T06:44:38.602Z,48.33
2022-08-28T06:47:07.494Z,47.96
2022-08-28T06:49:36.584Z,47.45
2022-08-28T06:52:05.273Z,47.29
2022-08-28T06:54:34.364Z,47.29
2022-08-28T06:57:05.204Z,47.39
2022-08-28T06:59:33.857Z,47.09
2022-08-28T07:02:03.204Z,46.44
2022-08-28T07:04:32.077Z,45.68
2022-08-28T07:07:00.862Z,44.41
2022-08-28T07:09:29.853Z,43.55
2022-08-28T07:11:58.742Z,44.04
2022-08-28T07:14:27.426Z,42.79
2022-08-28T07:16:57.345Z,42.42
2022-08-28T07:19:26.042Z,43.06
2022-08-28T07:21:55.739Z,44.00
2022-08-28T07:24:24.731Z,43.47
2022-08-28T07:26:53.724Z,42.92
2022-08-28T07:29:23.028Z,41.89
2022-08-28T07:31:53.781Z,40.56
2022-08-28T07:34:26.873Z,40.83
2022-08-28T07:36:58.608Z,40.31
2022-08-28T07:39:27.291Z,40.66
2022-08-28T07:41:56.694Z,40.13
2022-08-28T07:44:44.324Z,40.56
2022-08-28T07:47:13.899Z,38.97
2022-08-28T07:49:42.620Z,39.29
2022-08-28T07:52:12.845Z,39.38
2022-08-28T07:54:41.538Z,38.76
2022-08-28T07:57:10.722Z,38.35
2022-08-28T07:59:40.301Z,38.78
2022-08-28T08:02:11.679Z,38.32
2022-08-28T08:04:41.083Z,39.01
2022-08-28T08:07:10.584Z,39.14
2022-08-28T08:09:44.082Z,39.53
2022-08-28T08:12:15.144Z,40.08
2022-08-28T08:14:44.323Z,39.27
2022-08-28T08:17:13.575Z,39.27
2022-08-28T08:19:42.513Z,38.51
2022-08-28T08:22:11.197Z,37.56
2022-08-28T08:24:39.674Z,37.43
2022-08-28T08:27:08.464Z,36.25
2022-08-28T08:29:37.524Z,36.87
2022-08-28T08:32:09.483Z,36.09
2022-08-28T08:34:42.105Z,34.36
2022-08-28T08:37:12.046Z,34.58
2022-08-28T08:39:43.253Z,34.89
2022-08-28T08:42:24.543Z,34.07
2022-08-28T08:44:55.869Z,32.95
2022-08-28T08:47:39.733Z,33.81
2022-08-28T08:50:16.399Z,33.75
2022-08-28T08:53:15.397Z,34.47
2022-08-28T08:55:53.202Z,35.14
2022-08-28T08:58:25.159Z,33.82
2022-08-28T09:01:09.691Z,33.11
2022-08-28T09:04:35.194Z,32.24
2022-08-28T09:07:18.773Z,31.50
2022-08-28T09:10:06.506Z,30.98
2022-08-28T09:12:45.531Z,31.69
2022-08-28T09:15:23.328Z,31.82
2022-08-28T09:18:08.767Z,31.48
2022-08-28T09:20:37.700Z,31.20
2022-08-28T09:23:12.939Z,30.08
2022-08-28T09:25:50.902Z,29.05
2022-08-28T09:28:28.026Z,28.70
2022-08-28T09:31:32.081Z,28.04
2022-08-28T09:34:28.783Z,28.50
2022-08-28T09:37:00.656Z,27.72
2022-08-28T09:39:31.429Z,28.17
2022-08-28T09:42:34.070Z,27.21
2022-08-28T09:45:18.729Z,27.66
2022-08-28T09:47:58.666Z,28.03
2022-08-28T09:50:39.535Z,28.30
2022-08-28T09:53:11.918Z,27.70
2022-08-28T09:55:56.263Z,26.42
2022-08-28T09:58:34.486Z,26.73
2022-08-28T10:01:08.068Z,27.42
2022-08-28T10:04:17.157Z,27.37
2022-08-28T10:06:57.258Z,25.64
2022-08-28T10:09:30.865Z,25.57
2022-08-28T10:12:11.015Z,25.22
2022-08-28T10:14:58.024Z,24.92
2022-08-28T10:18:04.401Z,24.36
2022-08-28T10:20:55.099Z,23.26
2022-08-28T10:24:02.511Z,21.67
2022-08-28T10:26:56.878Z,21.27
2022-08-28T10:30:07.764Z,21.23
2022-08-28T10:33:01.604Z,20.98
2022-08-28T10:35:36.051Z,21.82
2022-08-28T10:38:12.169Z,21.55
2022-08-28T10:40:50.009Z,21.56
2022-08-28T10:43:26.271Z,21.80
2022-08-28T10:45:55.601Z,21.79
2022-08-28T10:48:40.545Z,21.70
2022-08-28T10:51:35.347Z,22.14
2022-08-28T10:54:17.436Z,22.23
2022-08-28T10:56:56.437Z,22.14
2022-08-28T10:59:30.273Z,21.35
2022-08-28T11:02:00.154Z,20.58
2022-08-28T11:04:30.611Z,20.65
2022-08-28T11:07:06.774Z,19.52
2022-08-28T11:09:46.620Z,19.71
2022-08-28T11:12:19.301Z,20.31
2022-08-28T11:14:51.318Z,20.84
2022-08-28T11:17:23.251Z,20.38
2022-08-28T11:20:14.337Z,21.16
2022-08-28T11:22:49.579Z,21.10
2022-08-28T11:25:32.714Z,19.14
2022-08-28T11:28:26.575Z,19.71
2022-08-28T11:31:01.451Z,19.46
2022-08-28T11:33:50.774Z,19.72
2022-08-28T11:36:19.789Z,19.19
2022-08-28T11:38:54.598Z,18.24
2022-08-28T11:41:26.971Z,17.88
2022-08-28T11:44:04.768Z,18.47
2022-08-28T11:46:38.833Z,18.50
2022-08-28T11:49:29.586Z,17.12
2022-08-28T11:52:17.786Z,18.07
2022-08-28T11:54:52.153Z,18.09
2022-08-28T11:57:32.199Z,18.17
2022-08-28T12:00:26.789Z,17.93
2022-08-28T12:03:07.350Z,17.58
2022-08-28T12:05:40.459Z,17.52
2022-08-28T12:08:11.139Z,17.51
2022-08-28T12:10:39.761Z,16.38
2022-08-28T12:13:10.213Z,18.01
2022-08-28T12:15:43.066Z,18.80
2022-08-28T12:18:12.170Z,18.35
2022-08-28T12:20:48.020Z,17.98
2022-08-28T12:24:09.715Z,18.69
2022-08-28T12:26:46.323Z,18.30
2022-08-28T12:29:29.407Z,17.67
2022-08-28T12:32:12.871Z,18.08
2022-08-28T12:35:03.784Z,18.02
2022-08-28T12:37:52.176Z,18.95
2022-08-28T12:40:27.073Z,19.64
2022-08-28T12:43:00.966Z,19.32
2022-08-28T12:45:40.333Z,20.03
2022-08-28T12:48:18.617Z,20.26
2022-08-28T12:50:47.814Z,20.29
2022-08-28T12:53:18.603Z,20.57
2022-08-28T12:55:47.847Z,19.67
2022-08-28T12:58:35.594Z,20.15
2022-08-28T13:01:10.436Z,20.51
2022-08-28T13:03:59.195Z,19.99
2022-08-28T13:06:34.305Z,21.47
2022-08-28T13:09:23.263Z,21.38
2022-08-28T13:11:52.671Z,20.73
2022-08-28T13:14:57.191Z,21.46
2022-08-28T13:17:46.769Z,22.81
2022-08-28T13:20:31.321Z,23.27
2022-08-28T13:23:00.897Z,23.91
2022-08-28T13:25:36.939Z,23.44
2022-08-28T13:28:19.172Z,24.96
2022-08-28T13:31:00.178Z,23.92
2022-08-28T13:33:29.051Z,22.83
2022-08-28T13:35:57.844Z,23.30
2022-08-28T13:38:26.729Z,23.77
2022-08-28T13:41:04.107Z,23.64
2022-08-28T13:43:45.193Z,23.27
2022-08-28T13:46:14.555Z,23.15
2022-08-28T13:48:43.391Z,23.38
2022-08-28T13:51:20.836Z,23.61
2022-08-28T13:53:50.789Z,24.31
2022-08-28T13:56:21.881Z,23.79
2022-08-28T13:58:57.298Z,23.42
2022-08-28T14:01:46.800Z,23.41
2022-08-28T14:04:15.854Z,23.26
2022-08-28T14:06:44.734Z,23.64
2022-08-28T14:09:17.714Z,23.47
2022-08-28T14:11:48.350Z,24.39
2022-08-28T14:14:17.756Z,24.72
2022-08-28T14:16:46.532Z,24.40
2022-08-28T14:19:15.336Z,24.69
2022-08-28T14:21:43.916Z,25.04
2022-08-28T14:24:13.016Z,25.18
2022-08-28T14:26:43.030Z,25.33
2022-08-28T14:29:14.317Z,25.26
2022-08-28T14:31:44.462Z,25.61
2022-08-28T14:34:16.102Z,26.08
2022-08-28T14:36:45.541Z,25.34
2022-08-28T14:39:14.242Z,25.51
2022-08-28T14:41:46.414Z,25.57
2022-08-28T14:44:16.320Z,26.76
2022-08-28T14:46:47.126Z,27.14
2022-08-28T14:49:18.243Z,27.30
2022-08-28T14:51:49.421Z,27.34
2022-08-28T14:54:21.374Z,27.54
2022-08-28T14:56:51.514Z,28.04
2022-08-28T14:59:24.625Z,27.23
2022-08-28T15:01:55.844Z,27.55
2022-08-28T15:04:25.437Z,27.65
2022-08-28T15:06:59.578Z,28.14
2022-08-28T15:09:28.679Z,28.43
2022-08-28T15:11:57.364Z,28.01
2022-08-28T15:14:26.356Z,28.21
2022-08-28T15:16:55.077Z,29.25
2022-08-28T15:19:24.139Z,29.08
2022-08-28T15:21:55.609Z,30.01
2022-08-28T15:24:31.715Z,30.79
2022-08-28T15:27:01.939Z,29.81
2022-08-28T15:29:30.958Z,30.55
2022-08-28T15:32:01.038Z,30.04
2022-08-28T15:34:30.892Z,30.16
2022-08-28T15:36:59.685Z,31.07
2022-08-28T15:39:48.127Z,31.03
2022-08-28T15:42:17.018Z,31.53
2022-08-28T15:44:45.804Z,31.93
2022-08-28T15:47:15.319Z,31.92
2022-08-28T15:49:48.693Z,31.63
2022-08-28T15:52:19.547Z,32.81
2022-08-28T15:54:49.874Z,32.59
2022-08-28T15:57:19.062Z,33.13
2022-08-28T15:59:49.516Z,33.63
2022-08-28T16:02:23.272Z,33.75
2022-08-28T16:04:54.380Z,34.14
2022-08-28T16:07:23.429Z,34.64
2022-08-28T16:09:52.927Z,35.17
2022-08-28T16:12:23.336Z,36.16
2022-08-28T16:14:52.095Z,36.62
2022-08-28T16:17:21.448Z,36.19
2022-08-28T16:19:50.345Z,36.31
2022-08-28T16:22:19.546Z,36.73
2022-08-28T16:24:48.630Z,37.58
2022-08-28T16:27:18.136Z,37.97
2022-08-28T16:29:49.456Z,37.34
2022-08-28T16:32:21.653Z,38.64
2022-08-28T16:34:51.159Z,38.93
2022-08-28T16:37:21.111Z,38.79
2022-08-28T16:39:56.330Z,40.10
2022-08-28T16:42:26.206Z,39.64
2022-08-28T16:44:57.907Z,40.33
2022-08-28T16:47:27.171Z,40.89
2022-08-28T16:50:02.982Z,42.07
2022-08-28T16:52:31.925Z,41.98
2022-08-28T16:55:00.618Z,41.91
2022-08-28T16:57:30.727Z,42.25
2022-08-28T17:00:00.747Z,42.14
2022-08-28T17:02:29.485Z,42.37
2022-08-28T17:05:00.805Z,42.48
2022-08-28T17:07:29.874Z,43.04
2022-08-28T17:09:59.483Z,43.21
2022-08-28T17:12:28.478Z,42.82
2022-08-28T17:14:57.067Z,43.60
2022-08-28T17:17:26.892Z,44.51
2022-08-28T17:19:55.721Z,45.02
2022-08-28T17:22:33.150Z,45.49
2022-08-28T17:25:14.617Z,45.72
2022-08-28T17:27:43.328Z,45.80
2022-08-28T17:30:29.929Z,46.28
2022-08-28T17:32:58.714Z,47.81
2022-08-28T17:35:27.708Z,47.75
2022-08-28T17:37:57.625Z,47.76
2022-08-28T17:40:26.849Z,47.68
2022-08-28T17:42:55.716Z,48.62
2022-08-28T17:45:24.702Z,48.52
2022-08-28T17:47:53.797Z,49.78
2022-08-28T17:50:22.483Z,48.87
2022-08-28T17:52:51.663Z,49.51
2022-08-28T17:55:21.391Z,49.13
2022-08-28T17:57:50.276Z,47.48
2022-08-28T18:00:19.067Z,48.29
2022-08-28T18:02:52.050Z,50.24
2022-08-28T18:05:21.150Z,49.73
2022-08-28T18:07:50.346Z,48.95
2022-08-28T18:10:19.341Z,50.51
2022-08-28T18:12:48.575Z,51.61
2022-08-28T18:15:17.834Z,52.83
2022-08-28T18:17:50.724Z,52.73
2022-08-28T18:20:19.713Z,52.29
2022-08-28T18:22:48.738Z,53.24
2022-08-28T18:25:37.156Z,53.07
2022-08-28T18:28:06.546Z,53.18
2022-08-28T18:30:35.655Z,53.89
2022-08-28T18:33:16.889Z,55.72
2022-08-28T18:35:49.475Z,57.15
2022-08-28T18:38:22.074Z,58.28
2022-08-28T18:40:50.774Z,58.95
2022-08-28T18:43:20.792Z,59.07
2022-08-28T18:45:49.885Z,58.97
2022-08-28T18:48:19.593Z,59.03
2022-08-28T18:50:48.790Z,59.27
2022-08-28T18:53:19.557Z,58.07
2022-08-28T18:55:50.553Z,57.41
2022-08-28T18:58:23.842Z,59.18
2022-08-28T19:00:53.163Z,56.62
2022-08-28T19:03:23.757Z,57.86
2022-08-28T19:05:52.476Z,59.20
2022-08-28T19:08:21.167Z,59.58
2022-08-28T19:10:50.462Z,59.93
2022-08-28T19:13:19.248Z,59.94
2022-08-28T19:15:53.056Z,60.41
2022-08-28T19:18:22.151Z,61.30
2022-08-28T19:20:52.373Z,61.15
2022-08-28T19:23:21.058Z,61.30
2022-08-28T19:25:50.463Z,61.30
2022-08-28T19:28:19.348Z,60.40
2022-08-28T19:30:48.493Z,61.61
2022-08-28T19:33:17.758Z,61.99
2022-08-28T19:35:46.535Z,62.53
2022-08-28T19:38:15.539Z,60.62
2022-08-28T19:40:45.749Z,58.88
2022-08-28T19:43:16.789Z,58.72
2022-08-28T19:45:46.295Z,60.43
2022-08-28T19:48:15.678Z,63.14
2022-08-28T19:50:44.379Z,64.49
2022-08-28T19:53:13.683Z,64.84
2022-08-28T19:55:42.569Z,65.27
2022-08-28T19:58:11.561Z,64.89
2022-08-28T20:00:40.149Z,64.97
2022-08-28T20:03:08.836Z,64.48
2022-08-28T20:05:38.497Z,65.49
2022-08-28T20:08:07.304Z,64.45
2022-08-28T20:10:38.782Z,64.63
2022-08-28T20:13:07.466Z,63.40
2022-08-28T20:15:36.419Z,62.62
2022-08-28T20:18:06.731Z,65.02
2022-08-28T20:20:36.393Z,63.69
2022-08-28T20:23:06.306Z,63.65
2022-08-28T20:25:36.471Z,63.03
2022-08-28T20:28:05.793Z,64.50
2022-08-28T20:30:34.655Z,66.39
2022-08-28T20:33:03.711Z,67.59
2022-08-28T20:35:32.928Z,67.84
2022-08-28T20:38:02.316Z,68.42
2022-08-28T20:40:31.468Z,69.03
2022-08-28T20:43:01.018Z,69.00
2022-08-28T20:45:30.006Z,68.75
2022-08-28T20:47:58.692Z,68.80
2022-08-28T20:50:27.610Z,69.79
2022-08-28T20:52:56.274Z,70.52
2022-08-28T20:55:24.954Z,70.37
2022-08-28T20:57:53.748Z,69.44
2022-08-28T21:00:22.853Z,70.34
2022-08-28T21:02:52.144Z,70.43
2022-08-28T21:05:20.956Z,69.02
2022-08-28T21:07:49.728Z,69.87
2022-08-28T21:10:18.724Z,70.38
2022-08-28T21:12:47.595Z,71.33
2022-08-28T21:15:16.586Z,71.56
2022-08-28T21:17:45.277Z,71.22
2022-08-28T21:20:15.599Z,70.59
2022-08-28T21:22:44.593Z,71.12
2022-08-28T21:25:13.788Z,70.75
2022-08-28T21:27:44.222Z,70.53
2022-08-28T21:30:16.231Z,71.99
2022-08-28T21:32:45.816Z,71.09
2022-08-28T21:35:14.945Z,71.33
2022-08-28T21:37:44.177Z,70.95
2022-08-28T21:40:14.464Z,71.88
2022-08-28T21:42:44.022Z,72.25
2022-08-28T21:45:13.762Z,73.42
2022-08-28T21:47:42.624Z,73.64
2022-08-28T21:50:12.320Z,72.53
2022-08-28T21:52:41.524Z,71.47
2022-08-28T21:55:14.044Z,73.32
2022-08-28T21:57:43.191Z,74.70
2022-08-28T22:00:17.843Z,75.13
2022-08-28T22:02:48.643Z,75.41
2022-08-28T22:05:18.526Z,75.83
2022-08-28T22:07:47.674Z,76.08
2022-08-28T22:10:16.555Z,74.97
2022-08-28T22:12:45.339Z,75.72
2022-08-28T22:15:14.126Z,74.61
2022-08-28T22:17:43.119Z,75.68
2022-08-28T22:20:12.397Z,75.37
2022-08-28T22:22:59.952Z,76.55
2022-08-28T22:25:28.938Z,75.69
2022-08-28T22:27:58.032Z,76.83
2022-08-28T22:30:27.744Z,73.58
2022-08-28T22:32:57.041Z,72.83
2022-08-28T22:35:26.762Z,73.81
2022-08-28T22:37:56.820Z,74.00
2022-08-28T22:40:25.849Z,76.50
2022-08-28T22:42:55.598Z,74.62
2022-08-28T22:45:26.003Z,73.74
2022-08-28T22:47:54.900Z,76.43
2022-08-28T22:50:23.989Z,76.30
2022-08-28T22:52:53.191Z,75.89
2022-08-28T22:55:22.926Z,77.35
2022-08-28T22:57:52.705Z,77.32
2022-08-28T23:00:25.986Z,77.72
2022-08-28T23:02:56.322Z,79.17
2022-08-28T23:05:28.047Z,78.08
2022-08-28T23:07:57.290Z,80.04
2022-08-28T23:10:48.179Z,79.52
2022-08-28T23:13:16.385Z,81.32
2022-08-28T23:15:48.170Z,79.97
2022-08-28T23:18:17.819Z,80.57
2022-08-28T23:20:47.443Z,81.61
2022-08-28T23:23:20.526Z,81.79
2022-08-28T23:25:50.746Z,81.55
2022-08-28T23:28:20.759Z,81.20
2022-08-28T23:30:50.054Z,82.03
2022-08-28T23:33:23.227Z,79.94
2022-08-28T23:35:53.781Z,79.04
2022-08-28T23:38:23.291Z,79.79
2022-08-28T23:40:52.715Z,77.83
2022-08-28T23:43:22.091Z,78.52
2022-08-28T23:45:51.571Z,78.96
2022-08-28T23:48:21.314Z,81.45
2022-08-28T23:50:50.302Z,81.82
2022-08-28T23:53:19.811Z,83.20
2022-08-28T23:55:50.829Z,82.19
2022-08-28T23:58:20.740Z,82.98
